<?xml version='1.0' encoding='UTF-8'?>
<gpx xmlns="http://www.topografix.com/GPX/1/1" creator="www.balnam.be" version="1.1" xmlns:xsi="http://www.w3.org/2001/XMLSchema-instance" xsi:schemaLocation="http://www.topografix.com/GPX/1/1 http://www.topografix.com/GPX/1/1/gpx.xsd">
<trk>
<name>nvsor5</name>
<cmt>v</cmt>
<desc>Orchimont Chemin n°5 Rue du Château</desc>
<link href="https://chemins.be/orchimont/chemin/5"/><trkseg>
<trkpt lat="49.891521" lon="4.929331"><time>2026-05-02T21:41:04Z</time></trkpt>
<trkpt lat="49.891457" lon="4.928977"><time>2026-05-02T21:51:04Z</time></trkpt>
<trkpt lat="49.891594" lon="4.928174"><time>2026-05-02T22:01:04Z</time></trkpt>
<trkpt lat="49.891600" lon="4.927319"><time>2026-05-02T22:11:04Z</time></trkpt>
<trkpt lat="49.891546" lon="4.927212"><time>2026-05-02T22:21:04Z</time></trkpt>
</trkseg></trk>
<trk>
<name>nvsor5</name>
<cmt>r</cmt>
<desc>Orchimont Chemin n°5 Rue du Château</desc>
<link href="https://chemins.be/orchimont/chemin/5"/><trkseg>
<trkpt lat="49.891546" lon="4.927212"><time>2026-05-02T22:21:04Z</time></trkpt>
<trkpt lat="49.891449" lon="4.926258"><time>2026-05-02T22:31:04Z</time></trkpt>
<trkpt lat="49.891069" lon="4.924889"><time>2026-05-02T22:41:04Z</time></trkpt>
<trkpt lat="49.890337" lon="4.924227"><time>2026-05-02T22:51:04Z</time></trkpt>
</trkseg></trk>
<trk>
<name>nvsor5</name>
<cmt>s</cmt>
<desc>Orchimont Chemin n°5 Rue du Château</desc>
<link href="https://chemins.be/orchimont/chemin/5"/><trkseg>
<trkpt lat="49.890337" lon="4.924227"><time>2026-05-02T22:51:04Z</time></trkpt>
<trkpt lat="49.890873" lon="4.923312"><time>2026-05-02T23:01:04Z</time></trkpt>
<trkpt lat="49.891242" lon="4.923289"><time>2026-05-02T23:11:04Z</time></trkpt>
</trkseg></trk>
<trk>
<name>nvsor5</name>
<cmt>v</cmt>
<desc>Orchimont Chemin n°5 Rue du Château</desc>
<link href="https://chemins.be/orchimont/chemin/5"/><trkseg>
<trkpt lat="49.891242" lon="4.923289"><time>2026-05-02T23:11:04Z</time></trkpt>
<trkpt lat="49.891819" lon="4.922892"><time>2026-05-02T23:21:04Z</time></trkpt>
<trkpt lat="49.891902" lon="4.922447"><time>2026-05-02T23:31:04Z</time></trkpt>
<trkpt lat="49.891958" lon="4.922156"><time>2026-05-02T23:41:04Z</time></trkpt>
<trkpt lat="49.892375" lon="4.921588"><time>2026-05-02T23:51:04Z</time></trkpt>
<trkpt lat="49.892401" lon="4.919499"><time>2026-05-03T00:01:04Z</time></trkpt>
<trkpt lat="49.892004" lon="4.918162"><time>2026-05-03T00:11:04Z</time></trkpt>
<trkpt lat="49.891762" lon="4.916113"><time>2026-05-03T00:21:04Z</time></trkpt>
</trkseg></trk>
<trk>
<name>nvsor5</name>
<cmt>s</cmt>
<desc>Orchimont Chemin n°5 Rue du Château</desc>
<link href="https://chemins.be/orchimont/chemin/5"/><trkseg>
<trkpt lat="49.891762" lon="4.916113"><time>2026-05-03T00:21:04Z</time></trkpt>
<trkpt lat="49.892709" lon="4.913591"><time>2026-05-03T00:31:04Z</time></trkpt>
</trkseg></trk>
<trk>
<name>nvsor5</name>
<cmt>v</cmt>
<desc>Orchimont Chemin n°5 Rue du Château</desc>
<link href="https://chemins.be/orchimont/chemin/5"/><trkseg>
<trkpt lat="49.892709" lon="4.913591"><time>2026-05-03T00:31:04Z</time></trkpt>
<trkpt lat="49.892691" lon="4.911782"><time>2026-05-03T00:41:04Z</time></trkpt>
<trkpt lat="49.892489" lon="4.910722"><time>2026-05-03T00:51:04Z</time></trkpt>
<trkpt lat="49.891939" lon="4.909087"><time>2026-05-03T01:01:04Z</time></trkpt>
<trkpt lat="49.891616" lon="4.906968"><time>2026-05-03T01:11:04Z</time></trkpt>
<trkpt lat="49.891695" lon="4.905564"><time>2026-05-03T01:21:04Z</time></trkpt>
<trkpt lat="49.891826" lon="4.904410"><time>2026-05-03T01:31:04Z</time></trkpt>
<trkpt lat="49.892224" lon="4.902048"><time>2026-05-03T01:41:04Z</time></trkpt>
<trkpt lat="49.892551" lon="4.897432"><time>2026-05-03T01:51:04Z</time></trkpt>
<trkpt lat="49.892916" lon="4.896253"><time>2026-05-03T02:01:04Z</time></trkpt>
<trkpt lat="49.893478" lon="4.895215"><time>2026-05-03T02:11:04Z</time></trkpt>
</trkseg></trk>
<trk>
<name>nvsor5</name>
<cmt>r</cmt>
<desc>Orchimont Chemin n°5 Rue du Château</desc>
<link href="https://chemins.be/orchimont/chemin/5"/><trkseg>
<trkpt lat="49.893478" lon="4.895215"><time>2026-05-03T02:11:04Z</time></trkpt>
<trkpt lat="49.893366" lon="4.894059"><time>2026-05-03T02:21:04Z</time></trkpt>
<trkpt lat="49.892697" lon="4.891003"><time>2026-05-03T02:31:04Z</time></trkpt>
<trkpt lat="49.892563" lon="4.888803"><time>2026-05-03T02:41:04Z</time></trkpt>
<trkpt lat="49.892130" lon="4.887184"><time>2026-05-03T02:51:04Z</time></trkpt>
<trkpt lat="49.891303" lon="4.885115"><time>2026-05-03T03:01:04Z</time></trkpt>
<trkpt lat="49.892274" lon="4.883177"><time>2026-05-03T03:11:04Z</time></trkpt>
<trkpt lat="49.892666" lon="4.882026"><time>2026-05-03T03:21:04Z</time></trkpt>
<trkpt lat="49.892561" lon="4.881399"><time>2026-05-03T03:31:04Z</time></trkpt>
<trkpt lat="49.892473" lon="4.880967"><time>2026-05-03T03:41:04Z</time></trkpt>
<trkpt lat="49.892783" lon="4.879884"><time>2026-05-03T03:51:04Z</time></trkpt>
<trkpt lat="49.893204" lon="4.878205"><time>2026-05-03T04:01:04Z</time></trkpt>
</trkseg>
</trk>
</gpx>